sensor_id;sensor_type;location;lat;lon;timestamp;temperature;humidity
11922;DHT22;6021;51.182;3.160;2022-12-07T00:01:45;4.90;99.90
11922;DHT22;6021;51.182;3.160;2022-12-07T00:04:16;4.80;99.90
11922;DHT22;6021;51.182;3.160;2022-12-07T00:06:46;4.60;99.90
11922;DHT22;6021;51.182;3.160;2022-12-07T00:09:17;4.60;99.90
11922;DHT22;6021;51.182;3.160;2022-12-07T00:11:50;4.90;99.90
11922;DHT22;6021;51.182;3.160;2022-12-07T00:14:19;4.80;99.90
11922;DHT22;6021;51.182;3.160;2022-12-07T00:16:50;4.70;99.90
11922;DHT22;6021;51.182;3.160;2022-12-07T00:19:19;4.80;99.90
11922;DHT22;6021;51.182;3.160;2022-12-07T00:21:48;4.50;99.90
11922;DHT22;6021;51.182;3.160;2022-12-07T00:24:16;4.50;99.90
11922;DHT22;6021;51.182;3.160;2022-12-07T00:26:44;4.70;99.90
11922;DHT22;6021;51.182;3.160;2022-12-07T00:29:18;4.50;99.90
11922;DHT22;6021;51.182;3.160;2022-12-07T00:31:47;4.50;99.90
11922;DHT22;6021;51.182;3.160;2022-12-07T00:34:18;4.50;99.90
11922;DHT22;6021;51.182;3.160;2022-12-07T00:36:48;4.60;99.90
11922;DHT22;6021;51.182;3.160;2022-12-07T00:39:17;4.50;99.90
11922;DHT22;6021;51.182;3.160;2022-12-07T00:41:45;4.40;99.90
11922;DHT22;6021;51.182;3.160;2022-12-07T00:44:13;4.40;99.90
11922;DHT22;6021;51.182;3.160;2022-12-07T00:46:42;4.50;99.90
11922;DHT22;6021;51.182;3.160;2022-12-07T00:49:12;4.50;99.90
11922;DHT22;6021;51.182;3.160;2022-12-07T00:51:40;4.40;99.90
11922;DHT22;6021;51.182;3.160;2022-12-07T00:54:08;4.20;99.90
11922;DHT22;6021;51.182;3.160;2022-12-07T00:56:37;4.20;99.90
11922;DHT22;6021;51.182;3.160;2022-12-07T00:59:05;4.30;99.90
11922;DHT22;6021;51.182;3.160;2022-12-07T01:01:36;4.40;99.90
11922;DHT22;6021;51.182;3.160;2022-12-07T01:04:04;4.20;99.90
11922;DHT22;6021;51.182;3.160;2022-12-07T01:06:33;4.20;99.90
11922;DHT22;6021;51.182;3.160;2022-12-07T01:09:02;4.30;99.90
11922;DHT22;6021;51.182;3.160;2022-12-07T01:11:31;4.60;99.90
11922;DHT22;6021;51.182;3.160;2022-12-07T01:14:00;4.80;99.90
11922;DHT22;6021;51.182;3.160;2022-12-07T01:16:30;4.80;99.90
11922;DHT22;6021;51.182;3.160;2022-12-07T01:19:00;4.70;99.90
11922;DHT22;6021;51.182;3.160;2022-12-07T01:21:33;4.70;99.90
11922;DHT22;6021;51.182;3.160;2022-12-07T01:24:05;4.70;99.90
11922;DHT22;6021;51.182;3.160;2022-12-07T01:26:34;4.70;99.90
11922;DHT22;6021;51.182;3.160;2022-12-07T01:29:02;4.80;99.90
11922;DHT22;6021;51.182;3.160;2022-12-07T01:31:30;4.90;99.90
11922;DHT22;6021;51.182;3.160;2022-12-07T01:33:59;4.80;99.90
11922;DHT22;6021;51.182;3.160;2022-12-07T01:36:35;4.80;99.90
11922;DHT22;6021;51.182;3.160;2022-12-07T01:39:01;4.90;99.90
11922;DHT22;6021;51.182;3.160;2022-12-07T01:41:32;4.80;99.90
11922;DHT22;6021;51.182;3.160;2022-12-07T01:46:55;4.90;99.90
11922;DHT22;6021;51.182;3.160;2022-12-07T01:49:38;4.90;99.90
11922;DHT22;6021;51.182;3.160;2022-12-07T01:52:30;4.70;99.90
11922;DHT22;6021;51.182;3.160;2022-12-07T01:55:03;4.80;99.90
11922;DHT22;6021;51.182;3.160;2022-12-07T01:57:26;4.90;99.90
11922;DHT22;6021;51.182;3.160;2022-12-07T01:59:56;5.00;99.90
11922;DHT22;6021;51.182;3.160;2022-12-07T02:02:30;4.90;99.90
11922;DHT22;6021;51.182;3.160;2022-12-07T02:05:00;5.00;99.90
11922;DHT22;6021;51.182;3.160;2022-12-07T02:07:30;5.10;99.90
11922;DHT22;6021;51.182;3.160;2022-12-07T02:10:17;4.80;99.90
11922;DHT22;6021;51.182;3.160;2022-12-07T02:12:58;4.70;99.90
11922;DHT22;6021;51.182;3.160;2022-12-07T02:15:19;4.80;99.90
11922;DHT22;6021;51.182;3.160;2022-12-07T02:20:34;4.60;99.90
11922;DHT22;6021;51.182;3.160;2022-12-07T02:23:30;4.40;99.90
11922;DHT22;6021;51.182;3.160;2022-12-07T02:31:46;4.50;99.90
11922;DHT22;6021;51.182;3.160;2022-12-07T02:34:27;4.40;99.90
11922;DHT22;6021;51.182;3.160;2022-12-07T02:37:00;4.40;99.90
11922;DHT22;6021;51.182;3.160;2022-12-07T02:39:40;4.40;99.90
11922;DHT22;6021;51.182;3.160;2022-12-07T02:42:09;4.40;99.90
11922;DHT22;6021;51.182;3.160;2022-12-07T02:44:36;4.80;99.90
11922;DHT22;6021;51.182;3.160;2022-12-07T02:47:07;4.70;99.90
11922;DHT22;6021;51.182;3.160;2022-12-07T02:49:38;4.50;99.90
11922;DHT22;6021;51.182;3.160;2022-12-07T02:52:07;4.50;99.90
11922;DHT22;6021;51.182;3.160;2022-12-07T02:54:36;4.60;99.90
11922;DHT22;6021;51.182;3.160;2022-12-07T03:00:09;4.30;99.90
11922;DHT22;6021;51.182;3.160;2022-12-07T03:08:30;4.60;99.90
11922;DHT22;6021;51.182;3.160;2022-12-07T03:11:05;5.00;99.90
11922;DHT22;6021;51.182;3.160;2022-12-07T03:16:28;5.00;99.90
11922;DHT22;6021;51.182;3.160;2022-12-07T03:19:09;4.80;99.90
11922;DHT22;6021;51.182;3.160;2022-12-07T03:21:43;5.00;99.90
11922;DHT22;6021;51.182;3.160;2022-12-07T03:24:17;5.00;99.90
11922;DHT22;6021;51.182;3.160;2022-12-07T03:26:56;4.90;99.90
11922;DHT22;6021;51.182;3.160;2022-12-07T03:29:25;4.80;99.90
11922;DHT22;6021;51.182;3.160;2022-12-07T03:32:02;4.80;99.90
11922;DHT22;6021;51.182;3.160;2022-12-07T03:34:38;4.70;99.90
11922;DHT22;6021;51.182;3.160;2022-12-07T03:37:25;4.80;99.90
11922;DHT22;6021;51.182;3.160;2022-12-07T03:39:58;4.80;99.90
11922;DHT22;6021;51.182;3.160;2022-12-07T03:42:26;4.80;99.90
11922;DHT22;6021;51.182;3.160;2022-12-07T03:44:55;4.70;99.90
11922;DHT22;6021;51.182;3.160;2022-12-07T03:48:09;4.80;99.90
11922;DHT22;6021;51.182;3.160;2022-12-07T03:50:13;4.70;99.90
11922;DHT22;6021;51.182;3.160;2022-12-07T03:52:44;4.70;99.90
11922;DHT22;6021;51.182;3.160;2022-12-07T03:55:34;4.80;99.90
11922;DHT22;6021;51.182;3.160;2022-12-07T03:58:04;4.70;99.90
11922;DHT22;6021;51.182;3.160;2022-12-07T04:00:32;4.70;99.90
11922;DHT22;6021;51.182;3.160;2022-12-07T04:03:01;4.80;99.90
11922;DHT22;6021;51.182;3.160;2022-12-07T04:05:29;4.70;99.90
11922;DHT22;6021;51.182;3.160;2022-12-07T04:07:58;4.80;99.90
11922;DHT22;6021;51.182;3.160;2022-12-07T04:10:26;4.80;99.90
11922;DHT22;6021;51.182;3.160;2022-12-07T04:12:55;4.60;99.90
11922;DHT22;6021;51.182;3.160;2022-12-07T04:15:23;4.60;99.90
11922;DHT22;6021;51.182;3.160;2022-12-07T04:17:51;4.50;99.90
11922;DHT22;6021;51.182;3.160;2022-12-07T04:20:21;4.60;99.90
11922;DHT22;6021;51.182;3.160;2022-12-07T04:22:49;4.70;99.90
11922;DHT22;6021;51.182;3.160;2022-12-07T04:25:18;4.40;99.90
11922;DHT22;6021;51.182;3.160;2022-12-07T04:27:46;4.30;99.90
11922;DHT22;6021;51.182;3.160;2022-12-07T04:30:15;4.40;99.90
11922;DHT22;6021;51.182;3.160;2022-12-07T04:32:43;4.40;99.90
11922;DHT22;6021;51.182;3.160;2022-12-07T04:35:11;4.10;99.90
11922;DHT22;6021;51.182;3.160;2022-12-07T04:37:40;4.40;99.90
11922;DHT22;6021;51.182;3.160;2022-12-07T04:40:09;4.30;99.90
11922;DHT22;6021;51.182;3.160;2022-12-07T04:42:38;4.10;99.90
11922;DHT22;6021;51.182;3.160;2022-12-07T04:45:07;4.10;99.90
11922;DHT22;6021;51.182;3.160;2022-12-07T04:47:36;4.10;99.90
11922;DHT22;6021;51.182;3.160;2022-12-07T04:50:05;4.00;99.90
11922;DHT22;6021;51.182;3.160;2022-12-07T04:52:33;4.10;99.90
11922;DHT22;6021;51.182;3.160;2022-12-07T04:55:02;4.10;99.90
11922;DHT22;6021;51.182;3.160;2022-12-07T04:57:30;4.40;99.90
11922;DHT22;6021;51.182;3.160;2022-12-07T04:59:59;4.00;99.90
11922;DHT22;6021;51.182;3.160;2022-12-07T05:02:27;4.30;99.90
11922;DHT22;6021;51.182;3.160;2022-12-07T05:04:55;4.30;99.90
11922;DHT22;6021;51.182;3.160;2022-12-07T05:07:24;4.20;99.90
11922;DHT22;6021;51.182;3.160;2022-12-07T05:09:52;4.40;99.90
11922;DHT22;6021;51.182;3.160;2022-12-07T05:12:20;4.40;99.90
11922;DHT22;6021;51.182;3.160;2022-12-07T05:14:49;4.50;99.90
11922;DHT22;6021;51.182;3.160;2022-12-07T05:17:17;4.50;99.90
11922;DHT22;6021;51.182;3.160;2022-12-07T05:19:45;4.50;99.90
11922;DHT22;6021;51.182;3.160;2022-12-07T05:22:14;4.50;99.90
11922;DHT22;6021;51.182;3.160;2022-12-07T05:24:42;4.40;99.90
11922;DHT22;6021;51.182;3.160;2022-12-07T05:27:11;4.60;99.90
11922;DHT22;6021;51.182;3.160;2022-12-07T05:29:39;4.50;99.90
11922;DHT22;6021;51.182;3.160;2022-12-07T05:32:07;4.60;99.90
11922;DHT22;6021;51.182;3.160;2022-12-07T05:34:36;4.40;99.90
11922;DHT22;6021;51.182;3.160;2022-12-07T05:37:04;4.30;99.90
11922;DHT22;6021;51.182;3.160;2022-12-07T05:39:32;4.50;99.90
11922;DHT22;6021;51.182;3.160;2022-12-07T05:42:01;4.40;99.90
11922;DHT22;6021;51.182;3.160;2022-12-07T05:44:43;4.20;99.90
11922;DHT22;6021;51.182;3.160;2022-12-07T05:47:13;4.20;99.90
11922;DHT22;6021;51.182;3.160;2022-12-07T05:49:42;4.30;99.90
11922;DHT22;6021;51.182;3.160;2022-12-07T05:52:10;4.50;99.90
11922;DHT22;6021;51.182;3.160;2022-12-07T05:54:39;4.30;99.90
11922;DHT22;6021;51.182;3.160;2022-12-07T05:57:07;4.20;99.90
11922;DHT22;6021;51.182;3.160;2022-12-07T05:59:36;4.20;99.90
11922;DHT22;6021;51.182;3.160;2022-12-07T06:02:07;4.50;99.90
11922;DHT22;6021;51.182;3.160;2022-12-07T06:04:38;4.50;99.90
11922;DHT22;6021;51.182;3.160;2022-12-07T06:07:07;4.40;99.90
11922;DHT22;6021;51.182;3.160;2022-12-07T06:09:36;4.20;99.90
11922;DHT22;6021;51.182;3.160;2022-12-07T06:12:05;4.20;99.90
11922;DHT22;6021;51.182;3.160;2022-12-07T06:14:51;4.40;99.90
11922;DHT22;6021;51.182;3.160;2022-12-07T06:17:20;4.10;99.90
11922;DHT22;6021;51.182;3.160;2022-12-07T06:19:48;4.20;99.90
11922;DHT22;6021;51.182;3.160;2022-12-07T06:22:17;4.10;99.90
11922;DHT22;6021;51.182;3.160;2022-12-07T06:24:45;3.90;99.90
11922;DHT22;6021;51.182;3.160;2022-12-07T06:27:14;4.20;99.90
11922;DHT22;6021;51.182;3.160;2022-12-07T06:29:42;4.20;99.90
11922;DHT22;6021;51.182;3.160;2022-12-07T06:32:10;4.30;99.90
11922;DHT22;6021;51.182;3.160;2022-12-07T06:34:39;4.10;99.90
11922;DHT22;6021;51.182;3.160;2022-12-07T06:37:07;4.20;99.90
11922;DHT22;6021;51.182;3.160;2022-12-07T06:39:36;4.20;99.90
11922;DHT22;6021;51.182;3.160;2022-12-07T06:42:04;4.20;99.90
11922;DHT22;6021;51.182;3.160;2022-12-07T06:44:32;4.20;99.90
11922;DHT22;6021;51.182;3.160;2022-12-07T06:47:01;4.30;99.90
11922;DHT22;6021;51.182;3.160;2022-12-07T06:49:29;3.90;99.90
11922;DHT22;6021;51.182;3.160;2022-12-07T06:51:58;4.20;99.90
11922;DHT22;6021;51.182;3.160;2022-12-07T06:54:26;4.30;99.90
11922;DHT22;6021;51.182;3.160;2022-12-07T06:56:56;4.10;99.90
11922;DHT22;6021;51.182;3.160;2022-12-07T06:59:25;4.20;99.90
11922;DHT22;6021;51.182;3.160;2022-12-07T07:01:53;4.30;99.90
11922;DHT22;6021;51.182;3.160;2022-12-07T07:04:21;4.10;99.90
11922;DHT22;6021;51.182;3.160;2022-12-07T07:06:50;4.20;99.90
11922;DHT22;6021;51.182;3.160;2022-12-07T07:09:19;4.10;99.90
11922;DHT22;6021;51.182;3.160;2022-12-07T07:11:47;4.40;99.90
11922;DHT22;6021;51.182;3.160;2022-12-07T07:14:16;4.40;99.90
11922;DHT22;6021;51.182;3.160;2022-12-07T07:16:46;4.40;99.90
11922;DHT22;6021;51.182;3.160;2022-12-07T07:19:14;4.50;99.90
11922;DHT22;6021;51.182;3.160;2022-12-07T07:21:43;4.40;99.90
11922;DHT22;6021;51.182;3.160;2022-12-07T07:24:11;4.50;99.90
11922;DHT22;6021;51.182;3.160;2022-12-07T07:26:39;4.50;99.90
11922;DHT22;6021;51.182;3.160;2022-12-07T07:29:08;4.50;99.90
11922;DHT22;6021;51.182;3.160;2022-12-07T07:31:36;4.80;99.90
11922;DHT22;6021;51.182;3.160;2022-12-07T07:34:04;4.80;99.90
11922;DHT22;6021;51.182;3.160;2022-12-07T07:36:33;4.90;99.90
11922;DHT22;6021;51.182;3.160;2022-12-07T07:39:01;4.90;99.90
11922;DHT22;6021;51.182;3.160;2022-12-07T07:41:30;5.00;99.90
11922;DHT22;6021;51.182;3.160;2022-12-07T07:43:58;4.90;99.90
11922;DHT22;6021;51.182;3.160;2022-12-07T07:46:27;5.00;99.90
11922;DHT22;6021;51.182;3.160;2022-12-07T07:48:55;5.10;99.90
11922;DHT22;6021;51.182;3.160;2022-12-07T07:51:23;4.80;99.90
11922;DHT22;6021;51.182;3.160;2022-12-07T07:53:52;4.70;99.90
11922;DHT22;6021;51.182;3.160;2022-12-07T07:56:20;4.90;99.90
11922;DHT22;6021;51.182;3.160;2022-12-07T07:58:53;4.70;99.90
11922;DHT22;6021;51.182;3.160;2022-12-07T08:01:21;4.80;99.90
11922;DHT22;6021;51.182;3.160;2022-12-07T08:03:50;4.70;99.90
11922;DHT22;6021;51.182;3.160;2022-12-07T08:06:18;4.90;99.90
11922;DHT22;6021;51.182;3.160;2022-12-07T08:08:46;4.80;99.90
11922;DHT22;6021;51.182;3.160;2022-12-07T08:11:15;4.70;99.90
11922;DHT22;6021;51.182;3.160;2022-12-07T08:13:45;4.70;99.90
11922;DHT22;6021;51.182;3.160;2022-12-07T08:16:14;4.90;99.90
11922;DHT22;6021;51.182;3.160;2022-12-07T08:18:43;5.00;99.90
11922;DHT22;6021;51.182;3.160;2022-12-07T08:21:13;4.90;99.90
11922;DHT22;6021;51.182;3.160;2022-12-07T08:23:43;5.00;99.90
11922;DHT22;6021;51.182;3.160;2022-12-07T08:26:13;5.00;99.90
11922;DHT22;6021;51.182;3.160;2022-12-07T08:28:42;4.90;99.90
11922;DHT22;6021;51.182;3.160;2022-12-07T08:31:15;5.30;99.90
11922;DHT22;6021;51.182;3.160;2022-12-07T08:33:46;5.20;99.90
11922;DHT22;6021;51.182;3.160;2022-12-07T08:36:16;5.40;99.90
11922;DHT22;6021;51.182;3.160;2022-12-07T08:38:45;5.50;99.90
11922;DHT22;6021;51.182;3.160;2022-12-07T08:41:14;5.70;99.90
11922;DHT22;6021;51.182;3.160;2022-12-07T08:43:42;5.60;99.90
11922;DHT22;6021;51.182;3.160;2022-12-07T08:46:22;5.50;99.90
11922;DHT22;6021;51.182;3.160;2022-12-07T08:49:02;5.50;99.90
11922;DHT22;6021;51.182;3.160;2022-12-07T08:51:28;5.30;99.90
11922;DHT22;6021;51.182;3.160;2022-12-07T08:53:58;5.20;99.90
11922;DHT22;6021;51.182;3.160;2022-12-07T08:59:04;5.30;99.90
11922;DHT22;6021;51.182;3.160;2022-12-07T09:01:33;5.10;99.90
11922;DHT22;6021;51.182;3.160;2022-12-07T09:04:01;5.00;99.90
11922;DHT22;6021;51.182;3.160;2022-12-07T09:06:30;5.10;99.90
11922;DHT22;6021;51.182;3.160;2022-12-07T09:08:59;5.20;99.90
11922;DHT22;6021;51.182;3.160;2022-12-07T09:11:29;5.20;99.90
11922;DHT22;6021;51.182;3.160;2022-12-07T09:13:57;5.20;99.90
11922;DHT22;6021;51.182;3.160;2022-12-07T09:16:26;5.50;99.90
11922;DHT22;6021;51.182;3.160;2022-12-07T09:18:54;5.70;99.90
11922;DHT22;6021;51.182;3.160;2022-12-07T09:21:22;5.80;99.90
11922;DHT22;6021;51.182;3.160;2022-12-07T09:23:51;6.00;99.90
11922;DHT22;6021;51.182;3.160;2022-12-07T09:26:19;6.10;99.90
11922;DHT22;6021;51.182;3.160;2022-12-07T09:28:47;6.40;99.90
11922;DHT22;6021;51.182;3.160;2022-12-07T09:31:16;6.60;99.90
11922;DHT22;6021;51.182;3.160;2022-12-07T09:33:45;6.50;99.90
11922;DHT22;6021;51.182;3.160;2022-12-07T09:36:13;6.70;99.90
11922;DHT22;6021;51.182;3.160;2022-12-07T09:38:41;6.90;99.90
11922;DHT22;6021;51.182;3.160;2022-12-07T09:41:10;6.70;99.90
11922;DHT22;6021;51.182;3.160;2022-12-07T09:43:39;6.40;99.90
11922;DHT22;6021;51.182;3.160;2022-12-07T09:46:13;6.40;99.90
11922;DHT22;6021;51.182;3.160;2022-12-07T09:48:43;6.40;99.90
11922;DHT22;6021;51.182;3.160;2022-12-07T09:51:18;6.30;99.90
11922;DHT22;6021;51.182;3.160;2022-12-07T09:53:44;6.20;99.90
11922;DHT22;6021;51.182;3.160;2022-12-07T09:56:15;6.30;99.90
11922;DHT22;6021;51.182;3.160;2022-12-07T09:58:44;6.50;99.90
11922;DHT22;6021;51.182;3.160;2022-12-07T10:01:20;6.50;99.90
11922;DHT22;6021;51.182;3.160;2022-12-07T10:04:00;6.60;99.90
11922;DHT22;6021;51.182;3.160;2022-12-07T10:06:23;7.10;99.90
11922;DHT22;6021;51.182;3.160;2022-12-07T10:08:51;6.90;99.90
11922;DHT22;6021;51.182;3.160;2022-12-07T10:11:20;6.90;99.90
11922;DHT22;6021;51.182;3.160;2022-12-07T10:13:53;7.30;99.90
11922;DHT22;6021;51.182;3.160;2022-12-07T10:16:41;7.00;99.90
11922;DHT22;6021;51.182;3.160;2022-12-07T10:19:30;6.90;99.90
11922;DHT22;6021;51.182;3.160;2022-12-07T10:22:12;7.00;99.90
11922;DHT22;6021;51.182;3.160;2022-12-07T10:24:42;7.00;99.90
11922;DHT22;6021;51.182;3.160;2022-12-07T10:27:22;6.90;99.90
11922;DHT22;6021;51.182;3.160;2022-12-07T10:29:52;6.70;99.90
11922;DHT22;6021;51.182;3.160;2022-12-07T10:32:33;6.90;99.90
11922;DHT22;6021;51.182;3.160;2022-12-07T10:35:19;6.70;99.90
11922;DHT22;6021;51.182;3.160;2022-12-07T10:37:48;7.10;99.90
11922;DHT22;6021;51.182;3.160;2022-12-07T10:40:26;6.70;99.90
11922;DHT22;6021;51.182;3.160;2022-12-07T10:43:08;6.90;99.90
11922;DHT22;6021;51.182;3.160;2022-12-07T10:48:22;7.00;99.90
11922;DHT22;6021;51.182;3.160;2022-12-07T10:53:37;7.00;99.90
11922;DHT22;6021;51.182;3.160;2022-12-07T10:56:35;6.70;99.90
11922;DHT22;6021;51.182;3.160;2022-12-07T11:05:03;6.60;99.90
11922;DHT22;6021;51.182;3.160;2022-12-07T11:10:25;7.10;99.90
11922;DHT22;6021;51.182;3.160;2022-12-07T11:15:36;7.00;99.90
11922;DHT22;6021;51.182;3.160;2022-12-07T11:18:26;6.90;99.90
11922;DHT22;6021;51.182;3.160;2022-12-07T11:21:24;7.20;99.90
11922;DHT22;6021;51.182;3.160;2022-12-07T11:23:48;7.40;99.90
11922;DHT22;6021;51.182;3.160;2022-12-07T11:26:23;7.20;99.90
11922;DHT22;6021;51.182;3.160;2022-12-07T11:32:17;6.70;99.90
11922;DHT22;6021;51.182;3.160;2022-12-07T11:34:51;6.40;99.90
11922;DHT22;6021;51.182;3.160;2022-12-07T11:37:23;6.60;99.90
11922;DHT22;6021;51.182;3.160;2022-12-07T11:39:54;6.40;99.90
11922;DHT22;6021;51.182;3.160;2022-12-07T11:42:26;6.40;99.90
11922;DHT22;6021;51.182;3.160;2022-12-07T11:45:02;6.40;99.90
11922;DHT22;6021;51.182;3.160;2022-12-07T11:50:42;6.70;99.90
11922;DHT22;6021;51.182;3.160;2022-12-07T11:55:38;7.20;99.90
11922;DHT22;6021;51.182;3.160;2022-12-07T11:57:43;7.10;99.90
11922;DHT22;6021;51.182;3.160;2022-12-07T12:00:14;7.10;99.90
11922;DHT22;6021;51.182;3.160;2022-12-07T12:02:56;7.10;99.90
11922;DHT22;6021;51.182;3.160;2022-12-07T12:05:25;7.40;99.90
11922;DHT22;6021;51.182;3.160;2022-12-07T12:08:03;7.40;99.90
11922;DHT22;6021;51.182;3.160;2022-12-07T12:10:34;7.30;99.90
11922;DHT22;6021;51.182;3.160;2022-12-07T12:18:37;7.70;99.90
11922;DHT22;6021;51.182;3.160;2022-12-07T12:21:09;7.50;99.90
11922;DHT22;6021;51.182;3.160;2022-12-07T12:23:43;7.40;99.90
11922;DHT22;6021;51.182;3.160;2022-12-07T12:26:24;7.40;99.90
11922;DHT22;6021;51.182;3.160;2022-12-07T12:28:58;6.90;99.90
11922;DHT22;6021;51.182;3.160;2022-12-07T12:31:36;6.90;99.90
11922;DHT22;6021;51.182;3.160;2022-12-07T12:37:00;7.20;99.90
11922;DHT22;6021;51.182;3.160;2022-12-07T12:39:28;7.20;99.90
11922;DHT22;6021;51.182;3.160;2022-12-07T12:41:58;7.40;99.90
11922;DHT22;6021;51.182;3.160;2022-12-07T12:47:04;7.10;99.90
11922;DHT22;6021;51.182;3.160;2022-12-07T12:49:36;7.00;99.90
11922;DHT22;6021;51.182;3.160;2022-12-07T12:55:02;6.90;99.90
11922;DHT22;6021;51.182;3.160;2022-12-07T12:57:31;6.70;99.90
11922;DHT22;6021;51.182;3.160;2022-12-07T13:00:02;6.70;99.90
11922;DHT22;6021;51.182;3.160;2022-12-07T13:02:35;6.60;99.90
11922;DHT22;6021;51.182;3.160;2022-12-07T13:18:37;6.30;99.90
11922;DHT22;6021;51.182;3.160;2022-12-07T13:29:05;6.20;99.90
11922;DHT22;6021;51.182;3.160;2022-12-07T13:34:04;6.10;99.90
11922;DHT22;6021;51.182;3.160;2022-12-07T13:36:38;6.10;99.90
11922;DHT22;6021;51.182;3.160;2022-12-07T13:41:44;5.80;99.90
11922;DHT22;6021;51.182;3.160;2022-12-07T13:44:14;5.90;99.90
11922;DHT22;6021;51.182;3.160;2022-12-07T13:47:06;5.80;99.90
11922;DHT22;6021;51.182;3.160;2022-12-07T13:49:49;5.80;99.90
11922;DHT22;6021;51.182;3.160;2022-12-07T13:52:20;5.70;99.90
11922;DHT22;6021;51.182;3.160;2022-12-07T13:57:35;6.20;99.90
11922;DHT22;6021;51.182;3.160;2022-12-07T14:00:13;5.90;99.90
11922;DHT22;6021;51.182;3.160;2022-12-07T14:02:35;6.00;99.90
11922;DHT22;6021;51.182;3.160;2022-12-07T14:05:15;6.10;99.90
11922;DHT22;6021;51.182;3.160;2022-12-07T14:07:57;6.10;99.90
11922;DHT22;6021;51.182;3.160;2022-12-07T14:13:02;6.60;99.90
11922;DHT22;6021;51.182;3.160;2022-12-07T14:15:32;6.30;99.90
11922;DHT22;6021;51.182;3.160;2022-12-07T14:18:03;6.40;99.90
11922;DHT22;6021;51.182;3.160;2022-12-07T14:20:37;6.20;99.90
11922;DHT22;6021;51.182;3.160;2022-12-07T14:23:23;6.10;99.90
11922;DHT22;6021;51.182;3.160;2022-12-07T14:25:53;6.10;99.90
11922;DHT22;6021;51.182;3.160;2022-12-07T14:28:30;6.20;99.90
11922;DHT22;6021;51.182;3.160;2022-12-07T14:30:59;5.90;99.90
11922;DHT22;6021;51.182;3.160;2022-12-07T14:33:28;5.90;99.90
11922;DHT22;6021;51.182;3.160;2022-12-07T14:35:57;5.80;99.90
11922;DHT22;6021;51.182;3.160;2022-12-07T14:38:25;5.80;99.90
11922;DHT22;6021;51.182;3.160;2022-12-07T14:40:55;5.90;99.90
11922;DHT22;6021;51.182;3.160;2022-12-07T14:43:28;5.70;99.90
11922;DHT22;6021;51.182;3.160;2022-12-07T14:45:57;5.80;99.90
11922;DHT22;6021;51.182;3.160;2022-12-07T14:48:26;5.70;99.90
11922;DHT22;6021;51.182;3.160;2022-12-07T14:50:54;5.80;99.90
11922;DHT22;6021;51.182;3.160;2022-12-07T14:53:27;5.60;99.90
11922;DHT22;6021;51.182;3.160;2022-12-07T14:55:56;5.90;99.90
11922;DHT22;6021;51.182;3.160;2022-12-07T14:58:24;5.50;99.90
11922;DHT22;6021;51.182;3.160;2022-12-07T15:00:52;5.70;99.90
11922;DHT22;6021;51.182;3.160;2022-12-07T15:03:22;5.80;99.90
11922;DHT22;6021;51.182;3.160;2022-12-07T15:05:50;6.00;99.90
11922;DHT22;6021;51.182;3.160;2022-12-07T15:08:19;6.00;99.90
11922;DHT22;6021;51.182;3.160;2022-12-07T15:10:47;5.90;99.90
11922;DHT22;6021;51.182;3.160;2022-12-07T15:13:15;6.00;99.90
11922;DHT22;6021;51.182;3.160;2022-12-07T15:16:02;5.90;99.90
11922;DHT22;6021;51.182;3.160;2022-12-07T15:18:30;6.00;99.90
11922;DHT22;6021;51.182;3.160;2022-12-07T15:20:58;5.60;99.90
11922;DHT22;6021;51.182;3.160;2022-12-07T15:23:27;5.60;99.90
11922;DHT22;6021;51.182;3.160;2022-12-07T15:25:55;5.60;99.90
11922;DHT22;6021;51.182;3.160;2022-12-07T15:28:24;5.50;99.90
11922;DHT22;6021;51.182;3.160;2022-12-07T15:30:52;5.40;99.90
11922;DHT22;6021;51.182;3.160;2022-12-07T15:33:20;5.40;99.90
11922;DHT22;6021;51.182;3.160;2022-12-07T15:35:49;5.30;99.90
11922;DHT22;6021;51.182;3.160;2022-12-07T15:38:17;5.30;99.90
11922;DHT22;6021;51.182;3.160;2022-12-07T15:40:48;5.20;99.90
11922;DHT22;6021;51.182;3.160;2022-12-07T15:43:17;5.20;99.90
11922;DHT22;6021;51.182;3.160;2022-12-07T15:46:03;5.10;99.90
11922;DHT22;6021;51.182;3.160;2022-12-07T15:48:31;5.10;99.90
11922;DHT22;6021;51.182;3.160;2022-12-07T15:51:09;5.00;99.90
11922;DHT22;6021;51.182;3.160;2022-12-07T15:53:37;5.00;99.90
11922;DHT22;6021;51.182;3.160;2022-12-07T15:56:07;5.40;99.90
11922;DHT22;6021;51.182;3.160;2022-12-07T15:58:35;5.30;99.90
11922;DHT22;6021;51.182;3.160;2022-12-07T16:01:16;5.30;99.90
11922;DHT22;6021;51.182;3.160;2022-12-07T16:03:45;5.20;99.90
11922;DHT22;6021;51.182;3.160;2022-12-07T16:06:16;5.30;99.90
11922;DHT22;6021;51.182;3.160;2022-12-07T16:08:46;5.20;99.90
11922;DHT22;6021;51.182;3.160;2022-12-07T16:11:14;5.30;99.90
11922;DHT22;6021;51.182;3.160;2022-12-07T16:13:43;5.00;99.90
11922;DHT22;6021;51.182;3.160;2022-12-07T16:16:14;4.90;99.90
11922;DHT22;6021;51.182;3.160;2022-12-07T16:18:44;5.00;99.90
11922;DHT22;6021;51.182;3.160;2022-12-07T16:21:14;5.10;99.90
11922;DHT22;6021;51.182;3.160;2022-12-07T16:23:43;5.20;99.90
11922;DHT22;6021;51.182;3.160;2022-12-07T16:26:14;5.50;99.90
11922;DHT22;6021;51.182;3.160;2022-12-07T16:28:44;5.60;99.90
11922;DHT22;6021;51.182;3.160;2022-12-07T16:31:14;5.70;99.90
11922;DHT22;6021;51.182;3.160;2022-12-07T16:33:44;5.40;99.90
11922;DHT22;6021;51.182;3.160;2022-12-07T16:36:13;5.10;99.90
11922;DHT22;6021;51.182;3.160;2022-12-07T16:38:43;5.30;99.90
11922;DHT22;6021;51.182;3.160;2022-12-07T16:41:12;5.20;99.90
11922;DHT22;6021;51.182;3.160;2022-12-07T16:43:40;5.20;99.90
11922;DHT22;6021;51.182;3.160;2022-12-07T16:46:09;5.20;99.90
11922;DHT22;6021;51.182;3.160;2022-12-07T16:48:39;5.00;99.90
11922;DHT22;6021;51.182;3.160;2022-12-07T16:51:09;5.10;99.90
11922;DHT22;6021;51.182;3.160;2022-12-07T16:53:41;5.00;99.90
11922;DHT22;6021;51.182;3.160;2022-12-07T16:56:11;5.10;99.90
11922;DHT22;6021;51.182;3.160;2022-12-07T16:58:40;5.00;99.90
11922;DHT22;6021;51.182;3.160;2022-12-07T17:01:11;5.00;99.90
11922;DHT22;6021;51.182;3.160;2022-12-07T17:03:40;5.10;99.90
11922;DHT22;6021;51.182;3.160;2022-12-07T17:06:20;5.20;99.90
11922;DHT22;6021;51.182;3.160;2022-12-07T17:08:49;5.10;99.90
11922;DHT22;6021;51.182;3.160;2022-12-07T17:13:49;5.20;99.90
11922;DHT22;6021;51.182;3.160;2022-12-07T17:16:35;5.20;99.90
11922;DHT22;6021;51.182;3.160;2022-12-07T17:19:10;5.30;99.90
11922;DHT22;6021;51.182;3.160;2022-12-07T17:21:34;5.20;99.90
11922;DHT22;6021;51.182;3.160;2022-12-07T17:24:05;5.20;99.90
11922;DHT22;6021;51.182;3.160;2022-12-07T17:26:34;5.20;99.90
11922;DHT22;6021;51.182;3.160;2022-12-07T17:29:04;5.30;99.90
11922;DHT22;6021;51.182;3.160;2022-12-07T17:31:33;5.30;99.90
11922;DHT22;6021;51.182;3.160;2022-12-07T17:34:02;5.70;99.90
11922;DHT22;6021;51.182;3.160;2022-12-07T17:36:31;5.50;99.90
11922;DHT22;6021;51.182;3.160;2022-12-07T17:39:00;5.50;99.90
11922;DHT22;6021;51.182;3.160;2022-12-07T17:41:29;5.20;99.90
11922;DHT22;6021;51.182;3.160;2022-12-07T17:44:19;5.50;99.90
11922;DHT22;6021;51.182;3.160;2022-12-07T17:46:50;5.20;99.90
11922;DHT22;6021;51.182;3.160;2022-12-07T17:49:25;5.20;99.90
11922;DHT22;6021;51.182;3.160;2022-12-07T17:51:54;5.40;99.90
11922;DHT22;6021;51.182;3.160;2022-12-07T17:54:40;5.40;99.90
11922;DHT22;6021;51.182;3.160;2022-12-07T17:57:09;5.20;99.90
11922;DHT22;6021;51.182;3.160;2022-12-07T17:59:37;5.50;99.90
11922;DHT22;6021;51.182;3.160;2022-12-07T18:02:06;5.20;99.90
11922;DHT22;6021;51.182;3.160;2022-12-07T18:04:35;5.50;99.90
11922;DHT22;6021;51.182;3.160;2022-12-07T18:07:03;5.30;99.90